Time;durP1;ratioP1;P1;durP2;ratioP2;P2;SDS_P1;SDS_P2;PMS_P1;PMS_P2;Temp;Humidity;BMP_temperature;BMP_pressure;BME280_temperature;BME280_humidity;BME280_pressure;Samples;Min_cycle;Max_cycle;Signal;HPM_P1;HPM_P2
2022/06/05 00:02:20;;;;;;;13.88;5.85;;;;;;;16.14;62.13;99471.22;5131449;27;20129;-42
2022/06/05 00:04:59;;;;;;;14.45;6.07;;;;;;;16.08;62.57;99468.03;5124691;27;20042;-40
2022/06/05 00:07:51;;;;;;;13.35;6.30;;;;;;;15.93;62.95;99458.47;5131765;27;20035;-41
2022/06/05 00:10:21;;;;;;;12.25;6.10;;;;;;;15.90;63.24;99463.06;5121781;27;20410;-42
2022/06/05 00:13:09;;;;;;;11.30;5.75;;;;;;;15.83;63.46;99462.59;5113570;27;20046;-41
2022/06/05 00:15:34;;;;;;;12.68;5.72;;;;;;;15.76;64.32;99453.38;5139672;27;20062;-42
2022/06/05 00:18:01;;;;;;;15.88;5.70;;;;;;;15.64;64.53;99435.78;5131958;27;20066;-42
2022/06/05 00:20:27;;;;;;;11.85;5.55;;;;;;;15.66;64.73;99447.00;5110176;27;20467;-41
2022/06/05 00:22:53;;;;;;;15.95;6.00;;;;;;;15.69;64.75;99449.47;5118849;27;20457;-42
2022/06/05 00:25:20;;;;;;;17.77;5.53;;;;;;;15.67;65.12;99440.81;5105738;28;20036;-42
2022/06/05 00:28:03;;;;;;;12.60;5.53;;;;;;;15.66;65.04;99437.38;5120685;27;20423;-42
2022/06/05 00:30:47;;;;;;;29.08;12.55;;;;;;;15.67;65.27;99433.81;5110818;27;20053;-42
2022/06/05 00:33:25;;;;;;;13.88;5.97;;;;;;;15.70;64.84;99434.59;5129063;27;20031;-41
2022/06/05 00:35:58;;;;;;;13.77;5.72;;;;;;;15.73;64.75;99431.75;5129188;27;20042;-42
2022/06/05 00:38:33;;;;;;;9.20;4.85;;;;;;;15.74;64.37;99428.22;5108337;28;20043;-41
2022/06/05 00:41:02;;;;;;;17.15;5.80;;;;;;;15.76;64.16;99428.94;5123949;27;20532;-42
2022/06/05 00:43:29;;;;;;;12.85;5.72;;;;;;;15.68;64.52;99422.41;5120460;27;20061;-41
2022/06/05 00:45:57;;;;;;;11.73;5.95;;;;;;;15.77;64.82;99422.78;5102108;27;20269;-41
2022/06/05 00:48:24;;;;;;;9.82;5.30;;;;;;;15.71;64.75;99410.88;5121197;27;20038;-41
2022/06/05 00:50:50;;;;;;;13.65;5.05;;;;;;;15.77;64.79;99410.50;5125493;27;20078;-41
2022/06/05 00:53:16;;;;;;;12.00;6.07;;;;;;;15.77;64.99;99413.13;5119401;27;20063;-41
2022/06/05 00:55:45;;;;;;;11.45;5.47;;;;;;;15.75;64.73;99415.03;5110979;27;20039;-42
2022/06/05 00:58:11;;;;;;;12.20;5.88;;;;;;;15.73;64.99;99411.63;5121253;27;20426;-42
2022/06/05 01:00:39;;;;;;;10.23;5.93;;;;;;;15.72;65.10;99414.34;5123457;27;20086;-42
2022/06/05 01:03:07;;;;;;;16.63;6.18;;;;;;;15.71;64.97;99410.88;5119949;27;20043;-42
2022/06/05 01:05:33;;;;;;;12.10;5.60;;;;;;;15.63;65.06;99392.16;5123902;27;20045;-42
2022/06/05 01:07:59;;;;;;;11.32;6.10;;;;;;;15.65;64.32;99388.50;5128292;27;20119;-41
2022/06/05 01:10:40;;;;;;;10.52;5.95;;;;;;;15.74;64.14;99404.63;5128658;27;20569;-41
2022/06/05 01:13:06;;;;;;;12.93;6.30;;;;;;;15.76;63.87;99400.13;5128340;27;20047;-42
2022/06/05 01:15:56;;;;;;;17.77;6.65;;;;;;;15.79;63.30;99392.94;5119814;28;20040;-42
2022/06/05 01:18:53;;;;;;;14.52;6.07;;;;;;;15.73;63.60;99381.97;5125255;28;20068;-41
2022/06/05 01:21:40;;;;;;;14.52;6.53;;;;;;;15.75;63.86;99394.06;5121666;28;20039;-42
2022/06/05 01:24:06;;;;;;;12.55;6.28;;;;;;;15.71;63.32;99392.53;5119709;27;20598;-42
2022/06/05 01:26:55;;;;;;;11.52;6.70;;;;;;;15.68;63.24;99397.97;5110978;28;20043;-40
2022/06/05 01:29:52;;;;;;;13.18;6.50;;;;;;;15.64;63.69;99397.31;5125887;28;20336;-41
2022/06/05 01:32:25;;;;;;;14.90;6.90;;;;;;;15.59;64.26;99391.50;5121065;28;20055;-42
2022/06/05 01:34:57;;;;;;;13.30;6.32;;;;;;;15.58;64.33;99400.31;5127805;28;20039;-42
2022/06/05 01:37:42;;;;;;;11.43;5.85;;;;;;;15.57;64.46;99411.72;5129068;28;20529;-41
2022/06/05 01:40:16;;;;;;;17.05;6.47;;;;;;;15.45;63.82;99388.81;5113203;28;20055;-41
2022/06/05 01:42:46;;;;;;;9.88;6.00;;;;;;;15.46;63.73;99400.13;5128113;28;20046;-42
2022/06/05 01:45:18;;;;;;;11.95;6.03;;;;;;;15.42;63.07;99396.88;5127983;28;20550;-40
2022/06/05 01:47:47;;;;;;;10.98;5.47;;;;;;;15.40;62.91;99392.63;5128970;28;20039;-40
2022/06/05 01:50:34;;;;;;;9.57;6.70;;;;;;;15.40;62.90;99392.63;5129413;28;20041;-41
2022/06/05 01:53:06;;;;;;;13.70;6.38;;;;;;;15.37;63.45;99380.56;5126164;28;20438;-41
2022/06/05 01:55:57;;;;;;;13.55;6.10;;;;;;;15.33;63.46;99378.22;5113732;28;20565;-42
2022/06/05 01:58:39;;;;;;;11.98;6.15;;;;;;;15.21;62.96;99362.28;5122344;28;20147;-42
2022/06/05 02:01:09;;;;;;;15.98;6.93;;;;;;;15.30;63.41;99367.91;5129474;28;20109;-42
2022/06/05 02:03:44;;;;;;;12.10;6.70;;;;;;;15.25;63.78;99352.47;5121312;27;20044;-40
2022/06/05 02:06:14;;;;;;;12.48;6.32;;;;;;;15.31;64.16;99364.34;5110216;28;20092;-41
2022/06/05 02:09:18;;;;;;;11.60;6.63;;;;;;;15.29;64.39;99369.69;5112261;28;20078;-40
2022/06/05 02:11:44;;;;;;;13.50;6.80;;;;;;;15.29;64.50;99367.06;5076425;28;20043;-41
2022/06/05 02:14:11;;;;;;;11.80;6.93;;;;;;;15.14;64.78;99350.47;5126097;28;21028;-41
2022/06/05 02:16:38;;;;;;;12.48;7.18;;;;;;;15.28;64.60;99371.44;5126154;28;20125;-41
2022/06/05 02:19:12;;;;;;;10.23;6.47;;;;;;;15.30;65.41;99366.13;5112016;27;20054;-41
2022/06/05 02:21:38;;;;;;;14.57;6.97;;;;;;;15.33;65.01;99362.50;5109643;28;20067;-41
2022/06/05 02:24:08;;;;;;;11.75;6.88;;;;;;;15.23;64.65;99343.84;5111700;27;20054;-41
2022/06/05 02:26:34;;;;;;;12.90;6.93;;;;;;;15.40;64.92;99363.81;5120067;27;20048;-42
2022/06/05 02:29:10;;;;;;;11.25;6.63;;;;;;;15.37;65.63;99350.91;5122316;27;20040;-41
2022/06/05 02:32:09;;;;;;;23.08;7.63;;;;;;;15.49;65.31;99356.25;5117305;27;20096;-41
2022/06/05 02:35:07;;;;;;;15.32;7.78;;;;;;;15.53;65.49;99359.56;5113558;27;20418;-42
2022/06/05 02:38:05;;;;;;;20.55;7.22;;;;;;;15.54;65.22;99351.63;5128085;27;20047;-41
2022/06/05 02:40:41;;;;;;;14.98;7.65;;;;;;;15.56;65.13;99349.75;5102478;27;20058;-42
2022/06/05 02:43:35;;;;;;;14.38;8.35;;;;;;;15.62;65.79;99351.16;5122784;27;20570;-41
2022/06/05 02:46:10;;;;;;;11.18;6.30;;;;;;;15.66;66.08;99352.66;5097810;27;20474;-42
2022/06/05 02:48:46;;;;;;;21.80;7.03;;;;;;;15.71;65.44;99349.75;5118253;27;20058;-41
2022/06/05 02:51:22;;;;;;;11.88;6.78;;;;;;;15.81;64.66;99356.97;5119812;27;20121;-41
2022/06/05 02:53:50;;;;;;;11.38;6.75;;;;;;;15.96;64.11;99360.44;5096104;28;20136;-42
2022/06/05 02:56:19;;;;;;;10.05;6.10;;;;;;;16.15;62.69;99360.16;5109174;27;20126;-41
2022/06/05 02:58:47;;;;;;;8.75;5.70;;;;;;;16.37;61.38;99357.88;5138620;27;20039;-42
2022/06/05 03:03:57;;;;;;;11.90;6.15;;;;;;;16.75;60.14;99361.53;5131541;27;20065;-41
2022/06/05 03:06:23;;;;;;;11.57;6.05;;;;;;;16.87;59.97;99362.53;5129317;27;20032;-41
2022/06/05 03:08:48;;;;;;;15.02;6.20;;;;;;;16.93;59.86;99359.50;5130711;27;20095;-41
2022/06/05 03:11:14;;;;;;;9.85;5.35;;;;;;;16.81;58.85;99342.75;5128087;27;20091;-41
2022/06/05 03:13:40;;;;;;;10.35;5.85;;;;;;;16.95;59.25;99355.00;5129912;27;20046;-41
2022/06/05 03:16:08;;;;;;;9.43;4.88;;;;;;;16.94;58.54;99346.28;5127976;27;20035;-41
2022/06/05 03:18:34;;;;;;;12.50;6.28;;;;;;;16.98;58.57;99320.63;5113094;27;20068;-42
2022/06/05 03:21:00;;;;;;;12.82;5.35;;;;;;;17.14;59.22;99326.56;5125996;27;20039;-42
2022/06/05 03:23:26;;;;;;;6.30;4.43;;;;;;;17.24;57.63;99342.53;5118499;27;20042;-41
2022/06/05 03:25:52;;;;;;;11.40;5.32;;;;;;;17.14;57.21;99323.09;5129466;27;20059;-42
2022/06/05 03:28:19;;;;;;;9.23;5.25;;;;;;;17.23;57.67;99333.81;5124531;27;20069;-41
2022/06/05 03:30:45;;;;;;;9.48;4.88;;;;;;;17.16;56.73;99335.19;5130978;27;20034;-41
2022/06/05 03:33:11;;;;;;;9.60;5.40;;;;;;;17.07;57.30;99338.41;5131540;27;20051;-41
2022/06/05 03:35:43;;;;;;;15.15;5.65;;;;;;;16.98;57.37;99348.69;5119602;27;20039;-41
2022/06/05 03:38:10;;;;;;;9.45;5.75;;;;;;;16.85;57.80;99336.34;5121597;27;20071;-41
2022/06/05 03:40:39;;;;;;;8.32;5.50;;;;;;;16.79;57.56;99334.16;5112943;28;20527;-40
2022/06/05 03:43:05;;;;;;;11.18;6.00;;;;;;;16.72;58.21;99338.09;5121053;27;20515;-40
2022/06/05 03:45:31;;;;;;;9.45;6.07;;;;;;;16.63;58.83;99332.63;5129518;27;20069;-41
2022/06/05 03:47:56;;;;;;;9.73;6.28;;;;;;;16.63;58.86;99333.47;5130294;27;20065;-40
2022/06/05 03:50:23;;;;;;;12.55;7.03;;;;;;;16.67;58.67;99327.06;5128937;27;20133;-41
2022/06/05 03:52:49;;;;;;;11.43;6.57;;;;;;;16.57;58.72;99317.22;5130289;27;20527;-40
2022/06/05 03:55:19;;;;;;;11.93;6.38;;;;;;;16.53;58.94;99320.06;5124479;27;20067;-42
2022/06/05 03:57:45;;;;;;;12.18;5.70;;;;;;;16.54;59.04;99319.09;5122372;27;20043;-42
2022/06/05 04:00:13;;;;;;;10.32;5.93;;;;;;;16.51;59.72;99332.44;5115101;27;20047;-42
2022/06/05 04:02:41;;;;;;;9.70;6.32;;;;;;;16.49;59.92;99339.53;5129678;27;20031;-42
2022/06/05 04:05:09;;;;;;;11.30;6.50;;;;;;;16.49;60.32;99338.69;5138085;27;20039;-42
2022/06/05 04:07:35;;;;;;;13.27;6.55;;;;;;;16.59;60.08;99347.69;5131134;27;20064;-42
2022/06/05 04:10:00;;;;;;;12.15;6.43;;;;;;;16.72;59.61;99338.09;5129352;27;20043;-41
2022/06/05 04:12:26;;;;;;;13.85;6.15;;;;;;;16.91;59.28;99343.84;5131005;27;20042;-41
2022/06/05 04:14:52;;;;;;;14.18;6.15;;;;;;;17.15;58.77;99344.00;5124163;27;20077;-41
2022/06/05 04:17:18;;;;;;;12.05;6.43;;;;;;;17.20;58.34;99326.16;5123015;27;20039;-42
2022/06/05 04:19:44;;;;;;;15.88;6.38;;;;;;;17.49;58.12;99325.94;5123145;27;20027;-41
2022/06/05 04:22:09;;;;;;;8.55;5.72;;;;;;;17.61;57.35;99328.63;5129389;27;20094;-41
2022/06/05 04:24:36;;;;;;;9.35;5.93;;;;;;;17.50;56.90;99309.25;5119064;27;20444;-41
2022/06/05 04:27:02;;;;;;;12.70;6.22;;;;;;;17.47;56.73;99335.75;5128940;27;20038;-41
2022/06/05 04:29:27;;;;;;;12.30;6.15;;;;;;;17.50;57.25;99352.13;5116724;27;20103;-42
2022/06/05 04:31:53;;;;;;;9.52;5.80;;;;;;;17.46;56.92;99371.69;5117372;27;20082;-49
2022/06/05 04:34:22;;;;;;;10.48;5.35;;;;;;;17.36;56.78;99353.09;5122866;27;20089;-40
2022/06/05 04:36:48;;;;;;;16.77;6.15;;;;;;;17.27;57.06;99352.88;5114759;27;20130;-42
2022/06/05 04:39:14;;;;;;;8.25;4.93;;;;;;;17.15;57.76;99354.53;5128935;27;20585;-42
2022/06/05 04:41:41;;;;;;;11.60;5.75;;;;;;;17.12;57.80;99356.50;5129563;27;20046;-40
2022/06/05 04:44:08;;;;;;;10.18;6.18;;;;;;;17.15;57.96;99364.19;5129125;27;20031;-41
2022/06/05 04:46:35;;;;;;;11.00;4.88;;;;;;;17.22;58.17;99370.69;5120945;27;20506;-41
2022/06/05 04:49:01;;;;;;;11.32;5.07;;;;;;;17.24;58.48;99374.06;5129374;27;20502;-41
2022/06/05 04:51:27;;;;;;;6.65;4.28;;;;;;;17.27;58.69;99363.38;5123994;27;20078;-41
2022/06/05 04:53:54;;;;;;;7.38;4.50;;;;;;;17.27;59.29;99368.63;5129206;27;20039;-42
2022/06/05 04:56:22;;;;;;;7.80;4.25;;;;;;;17.19;60.00;99361.25;5128254;27;20426;-40
2022/06/05 04:58:49;;;;;;;9.02;4.90;;;;;;;17.22;60.64;99363.66;5128945;27;20071;-41
2022/06/05 05:01:16;;;;;;;5.78;3.72;;;;;;;17.20;60.97;99368.19;5119389;27;20074;-42
2022/06/05 05:03:42;;;;;;;6.20;3.83;;;;;;;17.15;61.27;99372.91;5126362;27;20065;-41
2022/06/05 05:06:07;;;;;;;7.68;3.53;;;;;;;17.00;62.24;99366.03;5123558;27;20039;-42
2022/06/05 05:08:33;;;;;;;8.00;3.25;;;;;;;16.93;62.78;99398.88;5096990;28;20502;-42
2022/06/05 05:10:59;;;;;;;4.15;3.20;;;;;;;16.80;63.16;99414.56;5120491;27;20047;-45
2022/06/05 05:13:25;;;;;;;7.00;2.70;;;;;;;16.70;63.88;99438.88;5128177;27;20035;-41
2022/06/05 05:15:52;;;;;;;6.10;3.25;;;;;;;16.57;64.18;99445.84;5121196;27;20525;-41
2022/06/05 05:18:18;;;;;;;5.93;2.92;;;;;;;16.26;65.69;99447.72;5123841;28;20122;-41
2022/06/05 05:20:44;;;;;;;5.13;2.75;;;;;;;15.81;69.67;99430.38;5111636;28;20046;-41
2022/06/05 05:23:10;;;;;;;6.00;3.38;;;;;;;15.52;73.14;99424.25;5125325;28;20041;-41
2022/06/05 05:25:36;;;;;;;5.75;3.20;;;;;;;15.48;75.65;99406.13;5128435;27;20141;-41
2022/06/05 05:28:02;;;;;;;5.20;3.25;;;;;;;15.40;77.71;99409.19;5130772;27;20506;-41
2022/06/05 05:30:28;;;;;;;5.47;3.75;;;;;;;15.35;78.73;99399.91;5128107;28;20115;-41
2022/06/05 05:32:53;;;;;;;5.22;3.17;;;;;;;15.29;79.95;99401.13;5123840;28;20047;-41
2022/06/05 05:35:22;;;;;;;4.70;2.80;;;;;;;15.25;80.19;99397.00;5117072;28;20035;-41
2022/06/05 05:37:48;;;;;;;5.68;3.17;;;;;;;15.23;80.84;99394.44;5129665;27;20041;-44
2022/06/05 05:42:58;;;;;;;5.35;2.75;;;;;;;15.34;81.44;99390.38;5129460;28;20059;-40
2022/06/05 05:45:23;;;;;;;4.63;3.13;;;;;;;15.34;81.67;99400.84;5123044;27;20534;-41
2022/06/05 05:47:49;;;;;;;5.53;3.10;;;;;;;15.30;81.62;99407.19;5128476;28;20043;-41
2022/06/05 05:50:16;;;;;;;6.50;3.20;;;;;;;15.30;82.10;99407.19;5115709;27;20067;-42
2022/06/05 05:52:44;;;;;;;6.03;3.35;;;;;;;15.26;82.63;99407.38;5121231;28;20537;-41
2022/06/05 05:55:18;;;;;;;5.55;2.75;;;;;;;15.24;83.07;99404.00;5129607;27;20039;-41
2022/06/05 05:57:46;;;;;;;5.00;3.17;;;;;;;15.26;83.37;99409.16;5124881;27;20506;-41
2022/06/05 06:00:14;;;;;;;4.30;3.20;;;;;;;15.30;83.41;99401.97;5125220;27;20031;-42
2022/06/05 06:02:41;;;;;;;6.07;3.95;;;;;;;15.34;83.16;99400.84;5123487;27;20078;-41
2022/06/05 06:05:08;;;;;;;5.65;3.88;;;;;;;15.45;83.29;99403.69;5133817;27;20043;-42
2022/06/05 06:07:34;;;;;;;4.70;3.58;;;;;;;15.55;83.42;99387.34;5115931;27;20062;-41
2022/06/05 06:10:00;;;;;;;8.43;3.45;;;;;;;15.73;84.02;99382.81;5116726;27;20506;-41
2022/06/05 06:12:25;;;;;;;5.70;3.03;;;;;;;15.95;82.81;99369.25;5129126;27;20039;-40
2022/06/05 06:14:51;;;;;;;3.92;3.22;;;;;;;16.14;81.99;99374.19;5133416;27;20069;-40
2022/06/05 06:17:18;;;;;;;5.78;3.38;;;;;;;16.31;81.39;99364.34;5126528;27;20043;-41
2022/06/05 06:19:44;;;;;;;4.80;3.42;;;;;;;16.46;80.85;99371.25;5131708;27;20047;-40
2022/06/05 06:22:09;;;;;;;4.47;3.22;;;;;;;16.51;80.26;99371.78;5132278;27;20046;-41
2022/06/05 06:24:35;;;;;;;4.43;3.28;;;;;;;16.49;79.76;99378.06;5132633;27;20043;-41
2022/06/05 06:27:01;;;;;;;4.53;3.95;;;;;;;16.51;79.30;99377.03;5129882;27;20031;-42
2022/06/05 06:29:26;;;;;;;5.85;3.90;;;;;;;16.60;78.72;99366.91;5109988;28;20042;-41
2022/06/05 06:31:52;;;;;;;6.93;3.78;;;;;;;16.67;78.55;99363.81;5126497;27;20416;-41
2022/06/05 06:34:18;;;;;;;5.70;3.60;;;;;;;16.60;78.04;99357.25;5134675;27;20067;-41
2022/06/05 06:36:44;;;;;;;7.18;4.07;;;;;;;16.90;77.48;99370.22;5130929;27;20039;-41
2022/06/05 06:39:10;;;;;;;5.63;4.47;;;;;;;17.26;76.43;99369.56;5132847;27;20051;-42
2022/06/05 06:41:35;;;;;;;5.13;3.42;;;;;;;17.79;73.86;99377.31;5111610;27;20043;-41
2022/06/05 06:44:03;;;;;;;3.58;2.90;;;;;;;18.07;71.90;99380.66;5130398;27;20120;-41
2022/06/05 06:46:29;;;;;;;5.47;3.25;;;;;;;18.12;71.34;99371.50;5122708;27;20314;-42
2022/06/05 06:48:55;;;;;;;6.13;3.42;;;;;;;18.11;71.19;99377.69;5124115;27;20251;-41
2022/06/05 06:51:21;;;;;;;6.53;3.13;;;;;;;18.07;71.44;99367.50;5125761;27;20113;-41
2022/06/05 06:53:47;;;;;;;4.18;3.38;;;;;;;18.07;70.77;99367.50;5125514;27;20415;-41
2022/06/05 06:56:15;;;;;;;4.40;3.28;;;;;;;18.05;70.39;99359.75;5123936;27;20061;-41
2022/06/05 06:58:41;;;;;;;7.80;3.78;;;;;;;18.35;69.42;99363.78;5129479;27;20133;-42
2022/06/05 07:01:07;;;;;;;5.80;3.50;;;;;;;18.48;68.62;99370.69;5124697;27;20108;-41
2022/06/05 07:03:34;;;;;;;3.40;3.10;;;;;;;20.03;62.89;99374.03;5118758;27;20498;-42
2022/06/05 07:06:01;;;;;;;3.95;3.00;;;;;;;21.16;58.19;99360.50;5125206;27;20517;-42
2022/06/05 07:08:28;;;;;;;4.18;2.85;;;;;;;21.60;57.00;99372.66;5124472;27;20038;-42
2022/06/05 07:10:54;;;;;;;2.55;2.35;;;;;;;21.24;56.47;99369.50;5120026;27;20137;-42
2022/06/05 07:13:20;;;;;;;3.17;2.67;;;;;;;20.60;58.46;99374.72;5123268;27;20171;-42
2022/06/05 07:15:45;;;;;;;3.40;2.60;;;;;;;20.02;59.88;99374.97;5124522;27;20073;-41
2022/06/05 07:18:12;;;;;;;3.50;2.78;;;;;;;19.85;60.39;99376.28;5127192;27;20055;-42
2022/06/05 07:20:41;;;;;;;4.97;3.80;;;;;;;20.10;59.18;99377.84;5124905;27;20046;-41
2022/06/05 07:23:06;;;;;;;;;;;;;;;20.00;59.23;99372.44;5126504;27;20035;-42
2022/06/05 07:25:33;;;;;;;3.88;2.95;;;;;;;19.99;59.41;99383.16;5125277;27;19915;-41
2022/06/05 07:27:59;;;;;;;9.38;5.75;;;;;;;20.08;58.96;99371.88;5123929;27;20170;-41
2022/06/05 07:30:25;;;;;;;3.78;2.72;;;;;;;20.19;58.33;99377.16;5122784;27;20173;-43
2022/06/05 07:32:51;;;;;;;4.10;3.10;;;;;;;20.25;57.90;99371.38;5117463;27;20062;-43
2022/06/05 07:35:18;;;;;;;4.43;2.55;;;;;;;20.27;58.23;99380.00;5124099;27;20506;-46
2022/06/05 07:37:44;;;;;;;3.83;2.63;;;;;;;20.21;58.52;99375.22;5130171;27;20039;-42
2022/06/05 07:40:10;;;;;;;5.70;3.20;;;;;;;20.26;58.64;99381.81;5123037;27;20498;-42
2022/06/05 07:42:38;;;;;;;5.65;3.10;;;;;;;20.63;57.83;99374.47;5118867;27;20047;-41
2022/06/05 07:45:05;;;;;;;4.70;2.72;;;;;;;21.11;55.74;99371.44;5126096;27;20042;-41
2022/06/05 07:47:30;;;;;;;3.38;2.90;;;;;;;21.98;53.68;99363.13;5106610;28;20039;-43
2022/06/05 07:49:57;;;;;;;3.03;2.55;;;;;;;22.32;52.56;99363.69;5117975;27;20035;-43
2022/06/05 07:55:08;;;;;;;4.07;2.78;;;;;;;21.84;53.09;99346.72;5125960;27;20126;-41
2022/06/05 07:57:33;;;;;;;3.92;2.58;;;;;;;21.27;54.24;99361.28;5118301;27;20108;-42
2022/06/05 07:59:59;;;;;;;3.60;2.47;;;;;;;20.69;55.39;99362.56;5122703;27;20529;-42
2022/06/05 08:02:27;;;;;;;4.80;2.33;;;;;;;20.30;56.29;99361.31;5121902;27;20134;-42
2022/06/05 08:04:54;;;;;;;3.55;2.33;;;;;;;19.80;57.26;99354.69;5128452;27;20410;-41
2022/06/05 08:07:25;;;;;;;2.60;2.40;;;;;;;19.45;58.06;99374.06;5125294;27;20104;-41
2022/06/05 08:09:54;;;;;;;5.57;2.50;;;;;;;18.95;59.57;99380.44;5125925;27;20042;-42
2022/06/05 08:12:22;;;;;;;3.83;2.60;;;;;;;18.28;62.73;99368.63;5122959;27;20117;-42
2022/06/05 08:14:49;;;;;;;5.30;2.53;;;;;;;17.94;66.01;99375.44;5119086;27;20051;-42
2022/06/05 08:17:19;;;;;;;6.38;2.60;;;;;;;17.46;69.28;99382.22;5127402;27;20035;-41
2022/06/05 08:19:45;;;;;;;7.55;2.60;;;;;;;17.19;71.05;99369.13;5126995;27;20133;-41
2022/06/05 08:22:13;;;;;;;4.65;2.75;;;;;;;17.32;73.27;99391.00;5126811;27;20058;-43
2022/06/05 08:24:39;;;;;;;4.53;2.65;;;;;;;17.45;73.84;99392.81;5114907;27;20035;-42
2022/06/05 08:27:06;;;;;;;5.18;3.65;;;;;;;17.70;74.14;99390.25;5120220;27;20035;-42
2022/06/05 08:29:32;;;;;;;4.13;2.25;;;;;;;17.93;73.81;99386.03;5125150;27;20514;-42
2022/06/05 08:31:59;;;;;;;6.95;3.28;;;;;;;18.25;72.82;99392.53;5119526;27;20138;-42
2022/06/05 08:34:25;;;;;;;3.83;2.47;;;;;;;18.67;70.89;99393.09;5122427;27;20463;-40
2022/06/05 08:41:26;;;;;;;3.10;2.25;;;;;;;18.81;69.82;99396.41;5133085;27;20036;-42
2022/06/05 08:42:33;;;;;;;2.17;1.83;;;;;;;19.23;67.18;99389.78;5123994;27;20043;-42
2022/06/05 08:45:22;;;;;;;;;;;;;;;19.11;65.59;99395.94;5111496;27;20138;-42
2022/06/05 08:47:55;;;;;;;;;;;;;;;18.72;65.15;99393.59;5118017;27;19968;-42
2022/06/05 08:50:48;;;;;;;3.38;1.60;;;;;;;18.63;64.34;99385.41;5123937;27;20343;-41
2022/06/05 08:53:32;;;;;;;4.50;2.08;;;;;;;19.05;63.89;99393.78;5125274;27;20039;-43
2022/06/05 08:55:59;;;;;;;2.17;1.75;;;;;;;19.64;62.37;99399.03;5119365;27;20043;-42
2022/06/05 08:58:49;;;;;;;2.83;1.88;;;;;;;20.17;59.95;99387.81;5107056;27;20422;-41
2022/06/05 09:01:25;;;;;;;1.85;1.67;;;;;;;20.82;57.87;99391.47;5130178;27;20040;-41
2022/06/05 09:03:56;;;;;;;1.90;1.63;;;;;;;21.57;55.48;99384.31;5121305;27;20062;-42
2022/06/05 09:06:36;;;;;;;2.00;1.30;;;;;;;22.03;53.15;99391.03;5113855;27;20046;-42
2022/06/05 09:09:06;;;;;;;1.77;0.98;;;;;;;22.32;52.06;99387.53;5125429;27;20031;-42
2022/06/05 09:11:55;;;;;;;3.63;1.10;;;;;;;22.95;50.92;99390.78;5129601;27;20039;-43
2022/06/05 09:14:40;;;;;;;1.27;1.05;;;;;;;24.32;47.04;99391.28;5116129;27;20043;-45
2022/06/05 09:17:11;;;;;;;1.55;1.08;;;;;;;24.45;45.94;99384.63;5126346;27;20087;-43
2022/06/05 09:19:38;;;;;;;2.30;0.90;;;;;;;24.25;46.01;99374.25;5129835;27;20047;-42
2022/06/05 09:22:11;;;;;;;3.47;0.80;;;;;;;24.53;45.30;99375.09;5125908;27;20043;-43
2022/06/05 09:24:57;;;;;;;1.30;0.90;;;;;;;24.79;44.81;99381.38;5128157;28;20570;-44
2022/06/05 09:27:45;;;;;;;4.60;1.58;;;;;;;25.81;41.94;99377.28;5124643;28;20690;-43
2022/06/05 09:30:23;;;;;;;3.20;1.00;;;;;;;26.83;40.00;99383.44;5124683;27;20510;-44
2022/06/05 09:33:09;;;;;;;2.22;1.23;;;;;;;27.99;37.52;99381.47;5135504;27;20054;-43
2022/06/05 09:35:38;;;;;;;1.10;1.00;;;;;;;29.27;35.90;99381.03;5129838;27;20043;-45
2022/06/05 09:38:18;;;;;;;2.05;1.00;;;;;;;30.50;33.29;99387.72;5129557;27;20059;-44
2022/06/05 09:41:11;;;;;;;1.60;1.50;;;;;;;30.39;31.70;99386.31;5111558;27;20400;-44
2022/06/05 09:44:05;;;;;;;1.42;1.33;;;;;;;31.01;30.08;99388.50;5110294;27;20051;-43
2022/06/05 09:46:55;;;;;;;2.53;1.00;;;;;;;30.60;30.25;99377.53;5127691;27;20456;-43
2022/06/05 09:52:36;;;;;;;4.60;1.50;;;;;;;30.53;31.43;99376.59;5123271;27;20035;-45
2022/06/05 09:55:09;;;;;;;4.07;1.40;;;;;;;30.69;31.13;99366.47;5128899;27;20110;-43
2022/06/05 10:00:48;;;;;;;2.45;1.10;;;;;;;33.52;27.03;99372.78;5124693;27;20050;-45
2022/06/05 10:03:20;;;;;;;1.75;1.38;;;;;;;34.47;26.05;99371.38;5124839;27;20037;-43
2022/06/05 10:06:11;;;;;;;5.70;4.60;;;;;;;34.93;23.59;99369.31;5109695;27;20043;-44
2022/06/05 10:08:46;;;;;;;1.58;1.40;;;;;;;34.06;25.25;99363.63;5131715;27;20047;-45
2022/06/05 10:11:44;;;;;;;4.68;2.13;;;;;;;35.09;25.07;99373.38;5120280;27;20043;-42
2022/06/05 10:14:50;;;;;;;2.42;2.10;;;;;;;34.51;25.91;99369.91;5124319;27;20054;-42
2022/06/05 10:17:31;;;;;;;3.40;1.90;;;;;;;33.63;26.00;99366.75;5095479;27;20137;-45
2022/06/05 10:20:17;;;;;;;1.90;1.50;;;;;;;33.42;25.83;99356.19;5121515;27;20043;-42
2022/06/05 10:23:00;;;;;;;1.80;1.60;;;;;;;33.17;25.92;99351.44;5125067;27;20049;-42
2022/06/05 10:25:29;;;;;;;2.30;1.75;;;;;;;34.60;25.50;99357.84;5107663;27;20043;-46
2022/06/05 10:28:00;;;;;;;1.92;1.30;;;;;;;35.40;23.82;99367.13;5119142;27;20038;-43
2022/06/05 10:30:38;;;;;;;1.33;1.02;;;;;;;33.09;25.86;99354.28;5102965;27;20049;-43
2022/06/05 10:33:11;;;;;;;2.42;1.30;;;;;;;31.46;28.30;99363.13;5121753;27;20035;-45
2022/06/05 10:35:53;;;;;;;3.90;2.05;;;;;;;33.06;27.18;99361.94;5106329;27;20031;-44
2022/06/05 10:38:32;;;;;;;1.48;1.17;;;;;;;34.45;24.79;99363.50;5122565;27;20051;-44
2022/06/05 10:41:10;;;;;;;0.98;0.90;;;;;;;32.63;26.27;99356.00;5125611;27;20039;-43
2022/06/05 10:43:36;;;;;;;;;;;;;;;30.64;28.71;99347.44;5124834;27;20085;-42
2022/06/05 10:46:18;;;;;;;1.98;1.33;;;;;;;29.10;30.08;99325.97;5123823;27;19915;-43
2022/06/05 10:48:49;;;;;;;1.38;1.02;;;;;;;28.23;31.54;99341.31;5131637;27;20039;-43
2022/06/05 10:51:40;;;;;;;2.63;1.15;;;;;;;28.72;31.06;99341.06;5121303;27;20118;-44
2022/06/05 10:54:15;;;;;;;1.58;1.00;;;;;;;28.06;31.56;99343.19;5121495;27;20099;-43
2022/06/05 10:56:44;;;;;;;3.88;1.70;;;;;;;28.45;30.67;99348.59;5129990;27;20035;-42
2022/06/05 10:59:18;;;;;;;3.55;1.10;;;;;;;30.07;28.73;99343.78;5128702;27;20031;-43
2022/06/05 11:02:05;;;;;;;1.13;0.95;;;;;;;30.37;27.53;99344.59;5124513;27;20078;-43
2022/06/05 11:04:43;;;;;;;4.22;1.45;;;;;;;31.13;27.45;99352.94;5146175;27;20047;-42
2022/06/05 11:07:46;;;;;;;3.13;1.20;;;;;;;33.04;25.02;99356.75;5128961;27;20042;-43
2022/06/05 11:13:40;;;;;;;1.38;1.23;;;;;;;30.94;26.99;99347.31;5120091;27;20054;-41
2022/06/05 11:16:16;;;;;;;1.40;1.30;;;;;;;30.67;27.63;99348.94;5127440;27;20039;-41
2022/06/05 11:18:49;;;;;;;2.70;1.40;;;;;;;31.51;26.50;99350.75;5107304;27;20111;-43
2022/06/05 11:21:20;;;;;;;1.83;1.73;;;;;;;32.53;26.16;99347.47;5124404;27;20039;-44
2022/06/05 11:23:49;;;;;;;2.65;2.15;;;;;;;33.17;25.53;99337.13;5112168;27;20116;-42
2022/06/05 11:26:21;;;;;;;2.08;1.88;;;;;;;34.36;24.69;99351.28;5109776;27;20040;-44
2022/06/05 11:28:47;;;;;;;2.55;2.10;;;;;;;33.87;24.06;99343.72;5132586;27;20510;-45
2022/06/05 11:31:30;;;;;;;2.50;1.75;;;;;;;32.89;24.45;99344.50;5124268;27;20050;-44
2022/06/05 11:34:20;;;;;;;2.03;1.42;;;;;;;32.06;26.11;99340.19;5123254;27;20047;-44
2022/06/05 11:36:54;;;;;;;3.05;1.85;;;;;;;32.93;25.35;99333.09;5130407;27;20081;-42
2022/06/05 11:39:30;;;;;;;1.98;1.60;;;;;;;33.56;24.16;99328.19;5119118;27;20528;-43
2022/06/05 11:42:19;;;;;;;5.57;5.00;;;;;;;33.98;24.41;99335.81;5122699;27;20514;-43
2022/06/05 11:44:56;;;;;;;4.40;2.63;;;;;;;35.26;23.00;99318.59;5119407;27;20376;-43
2022/06/05 11:47:31;;;;;;;4.20;2.10;;;;;;;35.74;22.15;99330.66;5120683;27;20508;-42
2022/06/05 11:50:08;;;;;;;2.00;1.80;;;;;;;36.40;22.04;99326.16;5123232;27;20778;-49
2022/06/05 11:52:41;;;;;;;;;;;;;;;36.91;21.67;99322.13;5129662;27;20070;-47
2022/06/05 11:55:11;;;;;;;2.13;1.88;;;;;;;36.95;21.59;99323.34;5130317;27;19915;-44
2022/06/05 11:57:48;;;;;;;2.35;1.90;;;;;;;37.09;20.79;99316.69;5117835;27;20117;-46
2022/06/05 12:00:25;;;;;;;3.13;2.13;;;;;;;37.53;20.42;99319.91;5114742;27;20035;-45
2022/06/05 12:03:10;;;;;;;2.97;2.67;;;;;;;37.65;19.89;99318.88;5120693;27;20097;-45
2022/06/05 12:05:46;;;;;;;8.00;2.88;;;;;;;37.25;20.32;99315.16;5126049;27;20043;-45
2022/06/05 12:08:24;;;;;;;2.30;2.10;;;;;;;37.25;19.44;99320.59;5123488;27;20126;-42
2022/06/05 12:11:06;;;;;;;3.10;2.80;;;;;;;37.47;20.04;99318.97;5122293;27;20043;-45
2022/06/05 12:14:00;;;;;;;5.40;4.18;;;;;;;37.67;19.38;99313.22;5125436;27;20051;-42
2022/06/05 12:16:32;;;;;;;9.32;7.95;;;;;;;38.00;19.63;99318.84;5128212;27;20039;-41